Terminal Aerodrome Forecast
Issued by NWS Charleston, WV

Current Version | Previous Version | Graphics & Text | Print | Product List | Glossary On
Versions: 1 2 3 4 5 6 7 8 9 10 11 12 13 14 15 16 17 18 19 20 21 22
000
FTUS41 KRLX 270205 AAA
TAFCRW
TAF AMD
KCRW 270205Z 2702/2724 00000KT P6SM FEW250
     FM270800 00000KT 6SM BR FEW001 SCT050
     FM271100 00000KT P6SM BKN050
     FM271800 VRB03KT P6SM SHRA VCTS OVC025CB
     FM272200 VRB03KT 3SM +SHRA BR VCTS OVC025CB=

USA.gov is the U.S. government's official web portal to all federal, state and local government web resources and services.